createdAt,value
2019-06-04T00:00:18.768Z,4.65
2019-06-04T00:00:53.701Z,4.70
2019-06-04T00:01:27.920Z,4.35
2019-06-04T00:02:02.074Z,4.33
2019-06-04T00:02:36.562Z,4.10
2019-06-04T00:03:10.459Z,5.45
2019-06-04T00:03:44.620Z,8.53
2019-06-04T00:04:18.249Z,4.10
2019-06-04T00:04:52.128Z,4.80
2019-06-04T00:05:25.981Z,4.83
2019-06-04T00:06:00.250Z,3.65
2019-06-04T00:06:34.558Z,4.20
2019-06-04T00:07:08.422Z,4.08
2019-06-04T00:07:41.910Z,4.35
2019-06-04T00:08:16.091Z,4.08
2019-06-04T00:08:49.942Z,4.62
2019-06-04T00:09:23.449Z,4.12
2019-06-04T00:09:57.636Z,4.08
2019-06-04T00:10:31.879Z,3.67
2019-06-04T00:11:05.610Z,4.40
2019-06-04T00:11:39.505Z,3.72
2019-06-04T00:12:13.384Z,4.37
2019-06-04T00:12:46.917Z,4.60
2019-06-04T00:13:20.786Z,4.10
2019-06-04T00:13:54.694Z,4.22
2019-06-04T00:14:28.270Z,4.33
2019-06-04T00:15:02.720Z,4.53
2019-06-04T00:15:36.804Z,3.92
2019-06-04T00:16:10.213Z,4.72
2019-06-04T00:16:44.064Z,4.20
2019-06-04T00:17:17.986Z,4.62
2019-06-04T00:17:51.591Z,4.20
2019-06-04T00:18:25.628Z,4.25
2019-06-04T00:18:59.555Z,4.70
2019-06-04T00:19:33.082Z,4.37
2019-06-04T00:20:07.392Z,3.72
2019-06-04T00:20:41.567Z,4.87
2019-06-04T00:21:15.078Z,5.05
2019-06-04T00:21:48.952Z,5.08
2019-06-04T00:22:23.018Z,4.33
2019-06-04T00:22:56.590Z,4.30
2019-06-04T00:23:30.462Z,4.45
2019-06-04T00:24:04.893Z,5.10
2019-06-04T00:24:38.701Z,4.42
2019-06-04T00:25:12.779Z,4.62
2019-06-04T00:25:46.652Z,5.10
2019-06-04T00:26:20.145Z,3.85
2019-06-04T00:26:54.605Z,4.17
2019-06-04T00:27:28.663Z,5.85
2019-06-04T00:28:03.694Z,4.70
2019-06-04T00:28:37.878Z,4.42
2019-06-04T00:29:11.942Z,4.75
2019-06-04T00:29:45.348Z,4.50
2019-06-04T00:30:21.834Z,4.70
2019-06-04T00:30:56.177Z,5.78
2019-06-04T00:31:34.920Z,6.35
2019-06-04T00:32:08.223Z,4.40
2019-06-04T00:32:42.331Z,3.95
2019-06-04T00:33:15.833Z,4.05
2019-06-04T00:33:49.730Z,4.60
2019-06-04T00:34:23.619Z,4.42
2019-06-04T00:34:58.031Z,5.00
2019-06-04T00:35:32.154Z,4.72
2019-06-04T00:36:06.030Z,6.50
2019-06-04T00:36:39.532Z,4.40
2019-06-04T00:37:13.428Z,5.15
2019-06-04T00:37:47.295Z,4.87
2019-06-04T00:38:20.865Z,5.03
2019-06-04T00:38:56.236Z,4.85
2019-06-04T00:39:30.319Z,4.62
2019-06-04T00:40:04.798Z,4.70
2019-06-04T00:40:39.068Z,5.45
2019-06-04T00:41:12.949Z,4.75
2019-06-04T00:41:46.630Z,7.17
2019-06-04T00:42:20.494Z,5.37
2019-06-04T00:42:54.402Z,5.05
2019-06-04T00:43:27.908Z,4.67
2019-06-04T00:44:02.987Z,4.75
2019-06-04T00:44:37.425Z,5.65
2019-06-04T00:45:12.378Z,4.97
2019-06-04T00:45:46.526Z,6.45
2019-06-04T00:46:20.394Z,5.15
2019-06-04T00:46:53.871Z,5.28
2019-06-04T00:47:27.744Z,5.75
2019-06-04T00:48:03.137Z,5.05
2019-06-04T00:48:37.038Z,7.28
2019-06-04T00:49:10.913Z,5.37
2019-06-04T00:49:44.782Z,5.40
2019-06-04T00:50:18.255Z,5.90
2019-06-04T00:50:52.139Z,5.22
2019-06-04T00:51:26.082Z,5.22
2019-06-04T00:51:59.545Z,6.45
2019-06-04T00:52:33.435Z,5.65
2019-06-04T00:53:07.383Z,12.80
2019-06-04T00:53:40.862Z,5.83
2019-06-04T00:54:14.897Z,5.03
2019-06-04T00:54:48.835Z,5.28
2019-06-04T00:55:28.692Z,5.37
2019-06-04T00:56:02.679Z,9.58
2019-06-04T00:56:36.543Z,4.72
2019-06-04T00:57:10.015Z,6.22
2019-06-04T00:57:43.819Z,5.42
2019-06-04T00:58:17.702Z,5.53
2019-06-04T00:58:51.182Z,5.12
2019-06-04T00:59:25.054Z,4.58
2019-06-04T00:59:58.966Z,4.60
2019-06-04T01:00:34.162Z,6.35
2019-06-04T01:01:08.204Z,5.53
2019-06-04T01:01:53.337Z,5.37
2019-06-04T01:02:17.354Z,4.42
2019-06-04T01:02:51.255Z,5.42
2019-06-04T01:03:25.255Z,5.97
2019-06-04T01:03:58.851Z,5.22
2019-06-04T01:04:32.798Z,6.70
2019-06-04T01:05:06.977Z,11.53
2019-06-04T01:05:40.456Z,5.10
2019-06-04T01:06:14.313Z,4.97
2019-06-04T01:06:48.162Z,5.12
2019-06-04T01:07:21.583Z,4.97
2019-06-04T01:08:21.064Z,5.05
2019-06-04T01:08:50.209Z,5.12
2019-06-04T01:09:23.890Z,4.97
2019-06-04T01:09:57.754Z,5.03
2019-06-04T01:10:31.662Z,5.20
2019-06-04T01:11:06.067Z,4.97
2019-06-04T01:11:40.150Z,6.25
2019-06-04T01:12:13.929Z,4.85
2019-06-04T01:12:47.435Z,4.70
2019-06-04T01:13:21.290Z,10.00
2019-06-04T01:13:55.170Z,6.10
2019-06-04T01:14:28.665Z,5.50
2019-06-04T01:15:10.816Z,5.72
2019-06-04T01:15:38.330Z,5.37
2019-06-04T01:16:11.920Z,6.28
2019-06-04T01:16:45.792Z,5.90
2019-06-04T01:17:19.650Z,5.42
2019-06-04T01:17:53.209Z,5.12
2019-06-04T01:18:27.677Z,5.42
2019-06-04T01:19:02.625Z,5.03
2019-06-04T01:19:36.213Z,4.95
2019-06-04T01:20:10.936Z,7.17
2019-06-04T01:20:45.750Z,5.08
2019-06-04T01:21:19.168Z,5.00
2019-06-04T01:21:53.042Z,5.90
2019-06-04T01:22:26.906Z,6.20
2019-06-04T01:23:01.742Z,5.67
2019-06-04T01:23:36.131Z,5.25
2019-06-04T01:24:09.935Z,5.30
2019-06-04T01:24:43.513Z,5.37
2019-06-04T01:25:17.375Z,4.97
2019-06-04T01:25:51.439Z,6.80
2019-06-04T01:26:24.923Z,5.72
2019-06-04T01:26:59.269Z,6.20
2019-06-04T01:27:33.342Z,5.67
2019-06-04T01:28:07.881Z,5.60
2019-06-04T01:28:42.073Z,5.60
2019-06-04T01:29:15.941Z,5.47
2019-06-04T01:29:49.442Z,4.65
2019-06-04T01:30:23.304Z,6.35
2019-06-04T01:30:57.165Z,5.70
2019-06-04T01:31:30.641Z,5.47
2019-06-04T01:32:18.269Z,5.87
2019-06-04T01:32:40.107Z,5.75
2019-06-04T01:33:13.932Z,5.62
2019-06-04T01:33:47.808Z,5.12
2019-06-04T01:34:22.158Z,5.17
2019-06-04T01:34:55.657Z,6.50
2019-06-04T01:35:29.603Z,6.33
2019-06-04T01:36:04.896Z,6.20
2019-06-04T01:36:38.524Z,5.50
2019-06-04T01:37:12.408Z,5.72
2019-06-04T01:37:46.197Z,6.87
2019-06-04T01:38:19.689Z,7.90
2019-06-04T01:38:53.609Z,6.17
2019-06-04T01:39:27.488Z,5.55
2019-06-04T01:40:01.053Z,5.65
2019-06-04T01:40:34.987Z,5.33
2019-06-04T01:41:09.278Z,6.00
2019-06-04T01:41:43.097Z,6.03
2019-06-04T01:42:16.966Z,7.03
2019-06-04T01:42:50.834Z,5.47
2019-06-04T01:43:24.320Z,5.42
2019-06-04T01:43:58.186Z,6.53
2019-06-04T01:44:32.081Z,10.68
2019-06-04T01:45:07.312Z,5.45
2019-06-04T01:45:41.447Z,6.17
2019-06-04T01:46:15.368Z,6.70
2019-06-04T01:46:48.839Z,5.75
2019-06-04T01:47:22.773Z,5.62
2019-06-04T01:47:56.711Z,6.03
2019-06-04T01:48:30.222Z,5.30
2019-06-04T01:49:04.097Z,8.23
2019-06-04T01:49:37.999Z,5.60
2019-06-04T01:50:13.008Z,6.05
2019-06-04T01:50:46.896Z,5.62
2019-06-04T01:51:20.767Z,5.45
2019-06-04T01:51:54.322Z,5.87
2019-06-04T01:52:28.279Z,5.83
2019-06-04T01:53:02.446Z,5.83
2019-06-04T01:53:36.499Z,4.97
2019-06-04T01:54:10.518Z,5.67
2019-06-04T01:54:44.445Z,6.83
2019-06-04T01:55:18.147Z,5.37
2019-06-04T01:55:52.020Z,5.20
2019-06-04T01:56:25.876Z,5.80
2019-06-04T01:56:59.353Z,6.00
2019-06-04T01:57:33.147Z,4.62
2019-06-04T01:58:10.076Z,5.92
2019-06-04T01:58:43.134Z,7.55
2019-06-04T01:59:17.009Z,6.87
2019-06-04T01:59:50.783Z,5.40
2019-06-04T02:00:30.357Z,6.72
2019-06-04T02:00:59.966Z,6.62
2019-06-04T02:01:33.882Z,5.65
2019-06-04T02:02:07.546Z,6.22
2019-06-04T02:02:41.701Z,6.10
2019-06-04T02:03:15.616Z,8.53
2019-06-04T02:03:49.082Z,5.58
2019-06-04T02:04:22.954Z,5.50
2019-06-04T02:04:56.821Z,5.62
2019-06-04T02:05:30.287Z,6.40
2019-06-04T02:06:04.433Z,5.47
2019-06-04T02:06:39.513Z,6.72
2019-06-04T02:07:14.178Z,5.72
2019-06-04T02:07:48.158Z,5.53
2019-06-04T02:08:22.014Z,5.75
2019-06-04T02:08:55.507Z,5.62
2019-06-04T02:09:29.393Z,5.60
2019-06-04T02:10:05.702Z,6.83
2019-06-04T02:10:38.546Z,6.92
2019-06-04T02:11:12.671Z,6.47
2019-06-04T02:11:46.657Z,5.60
2019-06-04T02:12:20.145Z,5.90
2019-06-04T02:12:54.011Z,6.25
2019-06-04T02:13:27.866Z,6.05
2019-06-04T02:14:01.342Z,6.12
2019-06-04T02:14:35.429Z,5.25
2019-06-04T02:15:09.404Z,6.28
2019-06-04T02:15:42.885Z,5.83
2019-06-04T02:16:24.042Z,5.62
2019-06-04T02:16:52.358Z,6.42
2019-06-04T02:17:25.996Z,6.80
2019-06-04T02:17:59.862Z,6.42
2019-06-04T02:18:33.739Z,6.28
2019-06-04T02:19:07.707Z,6.22
2019-06-04T02:19:41.700Z,7.00
2019-06-04T02:20:15.874Z,6.70
2019-06-04T02:20:49.347Z,6.80
2019-06-04T02:21:23.210Z,6.72
2019-06-04T02:21:57.062Z,6.20
2019-06-04T02:22:30.529Z,6.85
2019-06-04T02:23:06.321Z,6.55
2019-06-04T02:23:40.094Z,6.50
2019-06-04T02:24:14.041Z,6.65
2019-06-04T02:24:48.113Z,5.70
2019-06-04T02:25:21.982Z,6.70
2019-06-04T02:25:55.461Z,7.05
2019-06-04T02:26:29.326Z,7.30
2019-06-04T02:27:03.201Z,6.75
2019-06-04T02:27:36.670Z,7.37
2019-06-04T02:28:10.547Z,7.33
2019-06-04T02:28:44.499Z,11.10
2019-06-04T02:29:18.698Z,6.40
2019-06-04T02:29:52.950Z,6.85
2019-06-04T02:30:26.849Z,7.03
2019-06-04T02:31:00.386Z,6.90
2019-06-04T02:31:34.239Z,6.40
2019-06-04T02:32:08.637Z,9.23
2019-06-04T02:33:05.237Z,9.80
2019-06-04T02:33:24.169Z,7.30
2019-06-04T02:33:53.341Z,6.62
2019-06-04T02:34:26.825Z,7.45
2019-06-04T02:35:00.955Z,6.92
2019-06-04T02:35:34.810Z,6.72
2019-06-04T02:36:08.881Z,6.87
2019-06-04T02:36:43.542Z,7.75
2019-06-04T02:37:17.415Z,7.50
2019-06-04T02:37:50.904Z,10.98
2019-06-04T02:38:24.919Z,7.42
2019-06-04T02:38:58.855Z,7.35
2019-06-04T02:39:32.333Z,6.97
2019-06-04T02:40:07.101Z,7.15
2019-06-04T02:40:42.304Z,7.60
2019-06-04T02:41:15.858Z,6.25
2019-06-04T02:41:49.817Z,6.83
2019-06-04T02:42:23.972Z,6.97
2019-06-04T02:42:57.439Z,6.83
2019-06-04T02:43:31.301Z,7.17
2019-06-04T02:44:05.159Z,7.92
2019-06-04T02:44:38.746Z,6.95
2019-06-04T02:45:14.446Z,6.53
2019-06-04T02:45:49.693Z,7.50
2019-06-04T02:46:23.711Z,7.40
2019-06-04T02:46:58.292Z,6.40
2019-06-04T02:47:33.487Z,7.30
2019-06-04T02:48:07.725Z,7.58
2019-06-04T02:48:42.307Z,8.23
2019-06-04T02:49:16.478Z,8.93
2019-06-04T02:49:51.946Z,9.15
2019-06-04T02:50:25.807Z,7.05
2019-06-04T02:51:00.168Z,7.08
2019-06-04T02:51:35.126Z,7.65
2019-06-04T02:52:11.161Z,7.90
2019-06-04T02:52:46.789Z,7.30
2019-06-04T02:53:20.675Z,10.70
2019-06-04T02:53:55.050Z,7.30
2019-06-04T02:54:30.038Z,8.20
2019-06-04T02:55:04.429Z,7.45
2019-06-04T02:55:38.492Z,7.75
2019-06-04T02:56:16.220Z,7.70
2019-06-04T02:56:50.983Z,7.47
2019-06-04T02:57:26.306Z,8.28
2019-06-04T02:58:01.650Z,10.70
2019-06-04T02:58:36.594Z,8.15
2019-06-04T02:59:12.009Z,7.55
2019-06-04T02:59:46.510Z,8.25
2019-06-04T03:00:23.298Z,8.28
2019-06-04T03:01:01.469Z,8.20
2019-06-04T03:01:35.467Z,9.75
2019-06-04T03:02:10.343Z,7.10
2019-06-04T03:02:44.480Z,7.83
2019-06-04T03:03:29.553Z,7.83
2019-06-04T03:03:53.585Z,8.88
2019-06-04T03:04:27.454Z,8.88
2019-06-04T03:05:01.320Z,8.35
2019-06-04T03:05:34.984Z,7.90
2019-06-04T03:06:09.161Z,8.43
2019-06-04T03:06:43.275Z,8.50
2019-06-04T03:07:17.379Z,8.90
2019-06-04T03:07:51.469Z,8.25
2019-06-04T03:08:25.373Z,8.75
2019-06-04T03:08:58.868Z,8.60
2019-06-04T03:09:32.788Z,8.45
2019-06-04T03:10:08.967Z,8.75
2019-06-04T03:10:43.369Z,8.68
2019-06-04T03:11:18.377Z,8.75
2019-06-04T03:11:52.845Z,8.85
2019-06-04T03:12:26.310Z,8.95
2019-06-04T03:13:00.095Z,8.30
2019-06-04T03:13:33.978Z,8.75
2019-06-04T03:14:07.529Z,8.90
2019-06-04T03:14:41.395Z,8.73
2019-06-04T03:15:15.821Z,7.47
2019-06-04T03:15:49.528Z,8.13
2019-06-04T03:16:23.323Z,8.28
2019-06-04T03:16:57.178Z,9.10
2019-06-04T03:17:30.651Z,8.28
2019-06-04T03:18:04.522Z,10.13
2019-06-04T03:18:38.425Z,8.33
2019-06-04T03:19:12.250Z,8.80
2019-06-04T03:19:46.370Z,8.48
2019-06-04T03:20:20.607Z,8.00
2019-06-04T03:20:54.102Z,8.70
2019-06-04T03:21:27.968Z,8.50
2019-06-04T03:22:01.832Z,8.85
2019-06-04T03:22:35.305Z,8.95
2019-06-04T03:23:09.086Z,10.45
2019-06-04T03:23:42.951Z,8.98
2019-06-04T03:24:17.034Z,8.53
2019-06-04T03:24:51.149Z,8.70
2019-06-04T03:25:25.022Z,9.10
2019-06-04T03:25:58.523Z,9.10
2019-06-04T03:26:32.381Z,10.03
2019-06-04T03:27:06.263Z,8.95
2019-06-04T03:27:39.746Z,12.05
2019-06-04T03:28:13.625Z,8.98
2019-06-04T03:28:47.478Z,9.40
2019-06-04T03:29:21.813Z,9.65
2019-06-04T03:29:55.899Z,9.23
2019-06-04T03:30:29.756Z,9.35
2019-06-04T03:31:03.259Z,8.90
2019-06-04T03:31:37.132Z,9.95
2019-06-04T03:32:12.543Z,8.88
2019-06-04T03:32:46.111Z,9.08
2019-06-04T03:33:49.018Z,8.68
2019-06-04T03:33:59.368Z,9.25
2019-06-04T03:34:31.031Z,8.20
2019-06-04T03:35:05.449Z,9.43
2019-06-04T03:35:43.309Z,9.35
2019-06-04T03:36:14.754Z,11.53
2019-06-04T03:36:48.624Z,9.65
2019-06-04T03:37:22.988Z,9.05
2019-06-04T03:37:56.572Z,8.78
2019-06-04T03:38:30.417Z,9.85
2019-06-04T03:39:05.863Z,9.63
2019-06-04T03:39:39.450Z,10.05
2019-06-04T03:40:13.344Z,10.18
2019-06-04T03:40:47.233Z,9.45
2019-06-04T03:41:21.617Z,9.48
2019-06-04T03:41:55.770Z,9.80
2019-06-04T03:42:29.634Z,9.50
2019-06-04T03:43:03.134Z,10.35
2019-06-04T03:43:36.991Z,10.50
2019-06-04T03:44:10.845Z,9.48
2019-06-04T03:44:44.330Z,9.83
2019-06-04T03:45:18.205Z,9.95
2019-06-04T03:45:52.078Z,10.28
2019-06-04T03:46:25.566Z,8.88
2019-06-04T03:46:59.350Z,9.80
2019-06-04T03:47:33.243Z,9.78
2019-06-04T03:48:06.795Z,8.90
2019-06-04T03:48:40.721Z,9.10
2019-06-04T03:49:14.605Z,10.48
2019-06-04T03:49:48.088Z,10.58
2019-06-04T03:50:22.468Z,9.25
2019-06-04T03:50:57.450Z,9.90
2019-06-04T03:51:31.003Z,9.30
2019-06-04T03:52:04.851Z,9.63
2019-06-04T03:52:38.698Z,10.35
2019-06-04T03:53:12.170Z,9.48
2019-06-04T03:53:46.058Z,9.98
2019-06-04T03:54:20.886Z,9.35
2019-06-04T03:54:54.479Z,10.50
2019-06-04T03:55:28.345Z,11.03
2019-06-04T03:56:02.258Z,10.08
2019-06-04T03:56:35.678Z,11.55
2019-06-04T03:57:09.560Z,10.18
2019-06-04T03:57:43.534Z,11.22
2019-06-04T03:58:18.991Z,11.30
2019-06-04T03:58:52.626Z,10.70
2019-06-04T03:59:26.585Z,11.40
2019-06-04T04:00:00.045Z,9.60
2019-06-04T04:00:33.969Z,10.78
2019-06-04T04:01:07.858Z,10.23
2019-06-04T04:01:41.369Z,10.82
2019-06-04T04:02:16.510Z,9.83
2019-06-04T04:02:54.260Z,10.68
2019-06-04T04:03:25.864Z,10.40
2019-06-04T04:04:07.851Z,12.33
2019-06-04T04:04:35.310Z,10.80
2019-06-04T04:05:08.792Z,10.03
2019-06-04T04:05:42.644Z,9.60
2019-06-04T04:06:16.840Z,9.85
2019-06-04T04:06:50.486Z,9.85
2019-06-04T04:07:24.651Z,9.93
2019-06-04T04:07:58.834Z,11.03
2019-06-04T04:08:32.247Z,11.28
2019-06-04T04:09:06.596Z,11.85
2019-06-04T04:09:40.477Z,11.68
2019-06-04T04:10:13.950Z,12.00
2019-06-04T04:10:47.813Z,9.73
2019-06-04T04:11:22.796Z,11.20
2019-06-04T04:11:57.429Z,9.90
2019-06-04T04:12:31.342Z,10.10
2019-06-04T04:13:05.225Z,10.10
2019-06-04T04:13:38.698Z,10.40
2019-06-04T04:14:12.582Z,10.18
2019-06-04T04:14:46.528Z,11.35
2019-06-04T04:15:20.745Z,10.45
2019-06-04T04:15:54.788Z,10.93
2019-06-04T04:16:29.521Z,11.45
2019-06-04T04:17:03.097Z,11.63
2019-06-04T04:17:36.977Z,11.20
2019-06-04T04:18:10.854Z,13.40
2019-06-04T04:18:44.335Z,11.60
2019-06-04T04:19:19.014Z,11.35
2019-06-04T04:19:52.931Z,10.48
2019-06-04T04:20:26.432Z,12.00
2019-06-04T04:21:00.294Z,10.98
2019-06-04T04:21:34.185Z,12.23
2019-06-04T04:22:07.673Z,10.75
2019-06-04T04:22:41.550Z,11.33
2019-06-04T04:23:15.415Z,10.43
2019-06-04T04:23:49.395Z,12.53
2019-06-04T04:24:23.267Z,12.82
2019-06-04T04:24:57.142Z,12.33
2019-06-04T04:25:30.622Z,12.73
2019-06-04T04:26:04.557Z,10.93
2019-06-04T04:26:38.634Z,11.60
2019-06-04T04:27:12.254Z,12.50
2019-06-04T04:27:46.178Z,11.57
2019-06-04T04:28:23.389Z,11.88
2019-06-04T04:28:58.893Z,11.60
2019-06-04T04:29:32.699Z,11.38
2019-06-04T04:30:06.593Z,12.10
2019-06-04T04:30:40.145Z,12.05
2019-06-04T04:31:14.015Z,13.50
2019-06-04T04:31:47.818Z,12.03
2019-06-04T04:32:21.327Z,12.40
2019-06-04T04:32:55.279Z,12.30
2019-06-04T04:33:29.301Z,11.55
2019-06-04T04:34:02.904Z,13.32
2019-06-04T04:34:37.162Z,13.15
2019-06-04T04:35:11.368Z,11.95
2019-06-04T04:35:44.851Z,12.63
2019-06-04T04:36:19.251Z,11.50
2019-06-04T04:36:53.285Z,13.75
2019-06-04T04:37:27.552Z,12.25
2019-06-04T04:38:01.745Z,14.43
2019-06-04T04:38:35.697Z,12.85
2019-06-04T04:39:09.170Z,12.60
2019-06-04T04:39:43.032Z,13.10
2019-06-04T04:40:17.747Z,11.33
2019-06-04T04:40:51.371Z,13.15
2019-06-04T04:41:25.941Z,14.68
2019-06-04T04:42:01.222Z,14.50
2019-06-04T04:42:34.708Z,12.95
2019-06-04T04:43:08.592Z,14.23
2019-06-04T04:43:42.469Z,10.95
2019-06-04T04:44:15.954Z,13.10
2019-06-04T04:44:49.828Z,13.25
2019-06-04T04:45:24.623Z,12.45
2019-06-04T04:45:58.380Z,12.23
2019-06-04T04:46:32.339Z,12.73
2019-06-04T04:47:06.238Z,12.60
2019-06-04T04:47:39.815Z,12.90
2019-06-04T04:48:13.712Z,12.60
2019-06-04T04:48:47.685Z,13.83
2019-06-04T04:49:21.833Z,13.70
2019-06-04T04:49:56.931Z,13.30
2019-06-04T04:50:30.876Z,20.82
2019-06-04T04:51:04.357Z,13.72
2019-06-04T04:51:38.320Z,15.48
2019-06-04T04:52:12.243Z,14.53
2019-06-04T04:52:45.728Z,13.18
2019-06-04T04:53:19.652Z,11.60
2019-06-04T04:53:53.617Z,13.05
2019-06-04T04:54:27.741Z,11.65
2019-06-04T04:55:01.939Z,15.53
2019-06-04T04:55:35.865Z,13.18
2019-06-04T04:56:09.362Z,11.70
2019-06-04T04:56:43.245Z,12.03
2019-06-04T04:57:17.142Z,13.10
2019-06-04T04:57:50.639Z,13.22
2019-06-04T04:58:24.734Z,11.90
2019-06-04T04:58:58.966Z,13.00
2019-06-04T04:59:32.461Z,14.07
2019-06-04T05:00:06.928Z,12.65
2019-06-04T05:00:42.301Z,11.90
2019-06-04T05:01:15.799Z,12.78
2019-06-04T05:01:49.716Z,11.65
2019-06-04T05:02:23.952Z,12.20
2019-06-04T05:02:57.507Z,13.60
2019-06-04T05:03:31.364Z,12.70
2019-06-04T05:04:05.282Z,11.85
2019-06-04T05:04:48.549Z,13.83
2019-06-04T05:05:14.346Z,12.93
2019-06-04T05:05:50.886Z,12.63
2019-06-04T05:06:27.256Z,14.38
2019-06-04T05:07:02.357Z,14.93
2019-06-04T05:07:38.040Z,16.12
2019-06-04T05:08:12.858Z,14.78
2019-06-04T05:08:47.044Z,12.25
2019-06-04T05:09:22.041Z,12.95
2019-06-04T05:09:56.367Z,14.85
2019-06-04T05:10:30.590Z,12.37
2019-06-04T05:11:05.062Z,11.55
2019-06-04T05:11:38.571Z,13.05
2019-06-04T05:12:12.778Z,14.35
2019-06-04T05:12:46.721Z,13.00
2019-06-04T05:13:22.598Z,15.53
2019-06-04T05:13:58.298Z,12.85
2019-06-04T05:14:33.474Z,14.28
2019-06-04T05:15:07.318Z,12.75
2019-06-04T05:15:42.890Z,14.18
2019-06-04T05:16:16.820Z,13.48
2019-06-04T05:16:52.202Z,12.43
2019-06-04T05:17:29.277Z,13.38
2019-06-04T05:18:04.610Z,13.50
2019-06-04T05:18:38.287Z,13.55
2019-06-04T05:19:12.663Z,11.65
2019-06-04T05:19:47.434Z,13.38
2019-06-04T05:20:21.381Z,13.15
2019-06-04T05:20:57.554Z,13.48
2019-06-04T05:21:34.134Z,13.50
2019-06-04T05:22:07.090Z,11.75
2019-06-04T05:22:41.466Z,10.10
2019-06-04T05:23:15.334Z,12.28
2019-06-04T05:23:48.820Z,12.28
2019-06-04T05:24:23.604Z,11.73
2019-06-04T05:24:58.156Z,12.47
2019-06-04T05:25:32.529Z,13.75
2019-06-04T05:26:06.481Z,11.80
2019-06-04T05:26:40.367Z,11.40
2019-06-04T05:27:13.927Z,11.90
2019-06-04T05:27:47.851Z,11.35
2019-06-04T05:28:22.106Z,12.93
2019-06-04T05:28:55.674Z,12.63
2019-06-04T05:29:29.880Z,14.65
2019-06-04T05:30:04.224Z,12.88
2019-06-04T05:30:37.827Z,12.93
2019-06-04T05:31:11.701Z,11.80
2019-06-04T05:31:45.562Z,11.25
2019-06-04T05:32:19.352Z,12.82
2019-06-04T05:32:53.463Z,13.28
2019-06-04T05:33:28.321Z,12.58
2019-06-04T05:34:02.270Z,13.48
2019-06-04T05:34:36.227Z,13.75
2019-06-04T05:35:10.092Z,13.03
2019-06-04T05:35:43.561Z,13.80
2019-06-04T05:36:17.430Z,11.88
2019-06-04T05:36:51.302Z,11.73
2019-06-04T05:37:25.097Z,12.78
2019-06-04T05:37:59.201Z,13.60
2019-06-04T05:38:33.079Z,12.65
2019-06-04T05:39:07.158Z,13.72
2019-06-04T05:39:41.010Z,17.95
2019-06-04T05:40:14.884Z,13.38
2019-06-04T05:40:48.414Z,11.88
2019-06-04T05:41:41.458Z,12.75
2019-06-04T05:42:15.341Z,12.63
2019-06-04T05:42:48.946Z,12.63
2019-06-04T05:43:22.848Z,13.58
2019-06-04T05:43:57.114Z,13.72
2019-06-04T05:44:30.619Z,12.93
2019-06-04T05:45:05.084Z,13.60
2019-06-04T05:45:39.190Z,11.93
2019-06-04T05:46:12.785Z,12.73
2019-06-04T05:46:46.654Z,12.53
2019-06-04T05:47:20.538Z,11.60
2019-06-04T05:47:54.064Z,12.70
2019-06-04T05:48:28.525Z,12.15
2019-06-04T05:49:05.486Z,14.95
2019-06-04T05:49:37.706Z,12.33
2019-06-04T05:50:11.786Z,10.98
2019-06-04T05:50:45.651Z,11.95
2019-06-04T05:51:19.414Z,11.80
2019-06-04T05:51:53.379Z,12.37
2019-06-04T05:52:27.268Z,11.50
2019-06-04T05:53:01.010Z,11.55
2019-06-04T05:53:34.978Z,13.48
2019-06-04T05:54:12.962Z,12.55
2019-06-04T05:54:44.226Z,13.18
2019-06-04T05:55:18.183Z,13.22
2019-06-04T05:55:52.072Z,12.18
2019-06-04T05:56:26.702Z,11.22
2019-06-04T05:57:00.670Z,12.88
2019-06-04T05:57:34.580Z,15.18
2019-06-04T05:58:08.205Z,11.78
2019-06-04T05:58:42.185Z,11.28
2019-06-04T05:59:16.283Z,11.55
2019-06-04T05:59:49.841Z,12.63
2019-06-04T06:00:25.260Z,12.60
2019-06-04T06:00:59.479Z,11.97
2019-06-04T06:01:35.955Z,11.43
2019-06-04T06:02:10.056Z,12.63
2019-06-04T06:09:54.673Z,11.08
2019-06-04T06:11:01.357Z,11.73
2019-06-04T06:11:35.309Z,10.58
2019-06-04T06:12:09.270Z,11.50
2019-06-04T06:12:42.829Z,11.18
2019-06-04T06:13:16.755Z,11.30
2019-06-04T06:13:50.668Z,10.08
2019-06-04T06:14:27.808Z,9.68
2019-06-04T06:15:01.907Z,10.55
2019-06-04T06:15:36.121Z,10.03
2019-06-04T06:16:10.023Z,10.03
2019-06-04T06:16:44.460Z,12.23
2019-06-04T06:17:18.924Z,10.08
2019-06-04T06:17:52.810Z,9.63
2019-06-04T06:18:28.148Z,9.83
2019-06-04T06:19:02.546Z,10.40
2019-06-04T06:19:42.064Z,10.00
2019-06-04T06:20:16.334Z,9.60
2019-06-04T06:20:52.041Z,10.72
2019-06-04T06:21:29.061Z,10.70
2019-06-04T06:22:03.325Z,10.48
2019-06-04T06:22:38.660Z,10.90
2019-06-04T06:23:12.925Z,9.63
2019-06-04T06:23:47.091Z,16.23
2019-06-04T06:24:21.348Z,9.45
2019-06-04T06:24:55.462Z,11.25
2019-06-04T06:25:33.346Z,9.65
2019-06-04T06:26:05.853Z,13.50
2019-06-04T06:26:40.543Z,10.40
2019-06-04T06:27:34.636Z,9.93
2019-06-04T06:28:09.220Z,9.30
2019-06-04T06:28:43.124Z,12.23
2019-06-04T06:29:17.403Z,9.73
2019-06-04T06:30:12.129Z,8.75
2019-06-04T06:30:46.421Z,8.53
2019-06-04T06:31:20.626Z,9.50
2019-06-04T06:31:54.905Z,9.60
2019-06-04T06:32:28.917Z,8.33
2019-06-04T06:33:03.399Z,9.43
2019-06-04T06:33:38.278Z,8.48
2019-06-04T06:34:12.262Z,8.43
2019-06-04T06:34:46.568Z,10.88
2019-06-04T06:35:20.885Z,8.35
2019-06-04T06:35:54.756Z,9.40
2019-06-04T06:36:29.094Z,9.48
2019-06-04T06:37:03.335Z,9.33
2019-06-04T06:37:37.161Z,9.80
2019-06-04T06:38:11.457Z,8.73
2019-06-04T06:39:05.617Z,8.83
2019-06-04T06:39:39.931Z,8.23
2019-06-04T06:40:14.948Z,9.68
2019-06-04T06:40:49.269Z,8.93
2019-06-04T06:41:23.163Z,8.63
2019-06-04T06:42:53.346Z,7.58
2019-06-04T06:43:28.025Z,9.75
2019-06-04T06:44:02.308Z,7.85
2019-06-04T06:44:36.571Z,7.40
2019-06-04T06:45:10.626Z,8.45
2019-06-04T06:45:44.865Z,8.00
2019-06-04T06:46:19.167Z,8.48
2019-06-04T06:46:53.019Z,7.42
2019-06-04T06:47:27.301Z,7.17
2019-06-04T06:48:05.098Z,7.80
2019-06-04T06:48:39.388Z,7.45
2019-06-04T06:49:17.782Z,8.05
2019-06-04T06:49:52.123Z,7.25
2019-06-04T06:50:26.897Z,7.90
2019-06-04T06:51:01.718Z,7.67
2019-06-04T06:51:36.016Z,7.45
2019-06-04T06:52:10.405Z,7.90
2019-06-04T06:52:45.582Z,8.18
2019-06-04T06:53:19.806Z,8.10
2019-06-04T06:53:55.023Z,8.38
2019-06-04T06:54:29.472Z,8.45
2019-06-04T06:55:03.821Z,7.40
2019-06-04T06:55:37.680Z,7.20
2019-06-04T06:56:11.975Z,9.70
2019-06-04T06:56:55.156Z,7.35
2019-06-04T06:57:30.379Z,7.33
2019-06-04T06:58:05.269Z,7.65
2019-06-04T06:58:39.495Z,8.35
2019-06-04T06:59:14.285Z,6.92
2019-06-04T06:59:48.732Z,7.30
2019-06-04T07:00:40.688Z,7.60
2019-06-04T07:01:17.678Z,7.55
2019-06-04T07:01:51.965Z,10.50
2019-06-04T07:02:27.480Z,7.33
2019-06-04T07:03:03.764Z,7.37
2019-06-04T07:03:39.261Z,7.70
2019-06-04T07:04:20.156Z,6.97
2019-06-04T07:05:02.913Z,8.13
2019-06-04T07:05:37.336Z,9.48
2019-06-04T07:06:31.879Z,7.47
2019-06-04T07:07:06.746Z,7.10
2019-06-04T07:07:41.343Z,7.80
2019-06-04T07:08:15.988Z,7.45
2019-06-04T07:08:49.966Z,7.47
2019-06-04T07:09:25.661Z,7.50
2019-06-04T07:10:00.507Z,7.17
2019-06-04T07:10:35.199Z,7.95
2019-06-04T07:11:11.917Z,7.12
2019-06-04T07:11:50.010Z,12.70
2019-06-04T07:12:24.809Z,7.60
2019-06-04T07:12:59.594Z,7.25
2019-06-04T07:13:37.648Z,9.28
2019-06-04T07:14:11.477Z,7.75
2019-06-04T07:14:48.348Z,6.58
2019-06-04T07:15:24.464Z,6.75
2019-06-04T07:15:59.076Z,7.20
2019-06-04T07:16:33.247Z,6.90
2019-06-04T07:17:07.651Z,7.47
2019-06-04T07:17:41.540Z,6.53
2019-06-04T07:18:15.985Z,6.05
2019-06-04T07:18:49.904Z,6.10
2019-06-04T07:19:42.871Z,6.12
2019-06-04T07:20:18.186Z,6.05
2019-06-04T07:20:52.755Z,6.92
2019-06-04T07:21:26.873Z,6.15
2019-06-04T07:22:01.123Z,6.90
2019-06-04T07:22:35.568Z,6.80
2019-06-04T07:23:09.551Z,6.35
2019-06-04T07:23:44.209Z,6.45
2019-06-04T07:24:29.585Z,6.30
2019-06-04T07:25:04.779Z,6.22
2019-06-04T07:25:41.991Z,6.45
2019-06-04T07:26:29.513Z,7.65
2019-06-04T07:27:03.672Z,7.05
2019-06-04T07:27:38.296Z,6.95
2019-06-04T07:28:18.703Z,6.20
2019-06-04T07:28:52.629Z,6.12
2019-06-04T07:29:30.322Z,5.90
2019-06-04T07:30:05.421Z,5.95
2019-06-04T07:30:40.301Z,8.68
2019-06-04T07:31:17.447Z,7.17
2019-06-04T07:32:10.930Z,6.58
2019-06-04T07:32:45.142Z,6.20
2019-06-04T07:33:19.431Z,6.92
2019-06-04T07:33:54.513Z,6.22
2019-06-04T07:34:30.516Z,6.70
2019-06-04T07:35:24.399Z,6.80
2019-06-04T07:36:20.836Z,5.50
2019-06-04T07:36:36.056Z,5.85
2019-06-04T07:37:10.708Z,6.08
2019-06-04T07:37:44.999Z,5.37
2019-06-04T07:38:18.791Z,5.80
2019-06-04T07:38:53.912Z,5.72
2019-06-04T07:39:28.363Z,8.30
2019-06-04T07:40:06.250Z,6.10
2019-06-04T07:40:38.811Z,6.20
2019-06-04T07:41:13.166Z,5.50
2019-06-04T07:41:47.592Z,5.97
2019-06-04T07:42:22.063Z,6.33
2019-06-04T07:42:56.347Z,6.25
2019-06-04T07:43:30.923Z,6.25